createdAt,value
2022-11-29T00:00:30.946Z,100.00
2022-11-29T00:03:39.454Z,100.00
2022-11-29T00:07:08.834Z,100.00
2022-11-29T00:10:38.229Z,100.00
2022-11-29T00:13:58.145Z,100.00
2022-11-29T00:17:36.363Z,100.00
2022-11-29T00:21:10.023Z,100.00
2022-11-29T00:24:36.569Z,100.00
2022-11-29T00:28:01.352Z,100.00
2022-11-29T00:31:22.826Z,100.00
2022-11-29T00:34:50.108Z,100.00
2022-11-29T00:38:07.138Z,100.00
2022-11-29T00:41:24.625Z,100.00
2022-11-29T00:45:04.343Z,100.00
2022-11-29T00:48:30.907Z,100.00
2022-11-29T00:52:11.262Z,100.00
2022-11-29T00:55:37.547Z,100.00
2022-11-29T00:59:32.069Z,100.00
2022-11-29T01:03:02.099Z,100.00
2022-11-29T01:06:42.388Z,100.00
2022-11-29T01:10:12.091Z,100.00
2022-11-29T01:13:49.056Z,100.00
2022-11-29T01:17:07.599Z,100.00
2022-11-29T01:20:36.715Z,100.00
2022-11-29T01:23:40.402Z,100.00
2022-11-29T01:26:57.622Z,100.00
2022-11-29T01:30:26.192Z,100.00
2022-11-29T01:34:02.762Z,100.00
2022-11-29T01:37:34.655Z,100.00
2022-11-29T01:40:57.812Z,100.00
2022-11-29T01:44:30.407Z,100.00
2022-11-29T01:47:58.522Z,100.00
2022-11-29T01:51:37.843Z,100.00
2022-11-29T01:55:07.902Z,100.00
2022-11-29T01:58:23.260Z,100.00
2022-11-29T02:01:40.554Z,100.00
2022-11-29T02:04:58.920Z,100.00
2022-11-29T02:08:38.370Z,100.00
2022-11-29T02:12:21.323Z,100.00
2022-11-29T02:16:05.506Z,100.00
2022-11-29T02:19:31.570Z,100.00
2022-11-29T02:23:21.695Z,100.00
2022-11-29T02:27:24.166Z,100.00
2022-11-29T02:31:20.079Z,100.00
2022-11-29T02:35:28.641Z,100.00
2022-11-29T02:39:03.040Z,100.00
2022-11-29T02:43:05.204Z,100.00
2022-11-29T02:46:10.913Z,100.00
2022-11-29T02:50:17.265Z,100.00
2022-11-29T02:53:58.667Z,100.00
2022-11-29T02:57:28.523Z,100.00
2022-11-29T03:01:22.062Z,100.00
2022-11-29T03:04:49.485Z,100.00
2022-11-29T03:09:01.469Z,100.00
2022-11-29T03:12:46.018Z,100.00
2022-11-29T03:16:43.613Z,100.00
2022-11-29T03:20:50.808Z,100.00
2022-11-29T03:24:25.206Z,100.00
2022-11-29T03:28:12.257Z,100.00
2022-11-29T03:32:02.949Z,100.00
2022-11-29T03:35:47.707Z,100.00
2022-11-29T03:39:07.985Z,100.00
2022-11-29T03:42:33.487Z,100.00
2022-11-29T03:46:03.353Z,100.00
2022-11-29T03:49:32.258Z,100.00
2022-11-29T03:52:57.356Z,100.00
2022-11-29T03:56:28.008Z,100.00
2022-11-29T04:00:13.663Z,100.00
2022-11-29T04:04:18.319Z,100.00
2022-11-29T04:08:02.140Z,100.00
2022-11-29T04:11:59.222Z,100.00
2022-11-29T04:15:46.920Z,100.00
2022-11-29T04:20:07.421Z,100.00
2022-11-29T04:23:31.376Z,100.00
2022-11-29T04:27:09.527Z,100.00
2022-11-29T04:30:58.814Z,100.00
2022-11-29T04:34:28.641Z,100.00
2022-11-29T04:38:13.235Z,100.00
2022-11-29T04:41:43.640Z,100.00
2022-11-29T04:45:39.243Z,100.00
2022-11-29T04:49:22.345Z,100.00
2022-11-29T04:53:20.767Z,100.00
2022-11-29T04:57:05.241Z,100.00
2022-11-29T05:00:24.714Z,100.00
2022-11-29T05:04:27.439Z,100.00
2022-11-29T05:08:27.312Z,100.00
2022-11-29T05:11:47.577Z,100.00
2022-11-29T05:15:28.002Z,100.00
2022-11-29T05:18:58.184Z,100.00
2022-11-29T05:22:28.478Z,100.00
2022-11-29T05:25:58.724Z,100.00
2022-11-29T05:30:15.105Z,100.00
2022-11-29T05:33:38.526Z,100.00
2022-11-29T05:37:37.303Z,100.00
2022-11-29T05:41:08.287Z,100.00
2022-11-29T05:44:36.912Z,100.00
2022-11-29T05:48:19.502Z,100.00
2022-11-29T05:52:14.466Z,100.00
2022-11-29T05:55:45.270Z,100.00
2022-11-29T05:59:23.555Z,100.00
2022-11-29T06:02:28.855Z,100.00
2022-11-29T06:06:10.342Z,100.00
2022-11-29T06:13:53.213Z,100.00
2022-11-29T06:17:49.179Z,100.00
2022-11-29T06:22:03.305Z,100.00
2022-11-29T06:26:13.510Z,100.00
2022-11-29T06:29:52.155Z,100.00
2022-11-29T06:33:30.465Z,100.00
2022-11-29T06:37:51.007Z,100.00
2022-11-29T06:41:18.242Z,100.00
2022-11-29T06:44:52.644Z,100.00
2022-11-29T06:49:02.329Z,100.00
2022-11-29T06:52:59.536Z,100.00
2022-11-29T06:56:30.510Z,100.00
2022-11-29T07:00:31.457Z,100.00
2022-11-29T07:04:11.204Z,100.00
2022-11-29T07:07:50.690Z,100.00
2022-11-29T07:11:25.137Z,100.00
2022-11-29T07:15:14.305Z,100.00
2022-11-29T07:23:32.831Z,100.00
2022-11-29T07:28:10.416Z,100.00
2022-11-29T07:31:33.688Z,100.00
2022-11-29T07:35:25.971Z,100.00
2022-11-29T07:39:11.165Z,100.00
2022-11-29T07:43:23.236Z,100.00
2022-11-29T07:46:30.627Z,100.00
2022-11-29T07:50:15.351Z,100.00
2022-11-29T07:53:56.446Z,100.00
2022-11-29T07:57:53.578Z,100.00
2022-11-29T08:01:12.984Z,100.00
2022-11-29T08:04:47.487Z,100.00
2022-11-29T08:08:13.736Z,100.00
2022-11-29T08:15:32.476Z,100.00
2022-11-29T08:23:51.942Z,100.00
2022-11-29T08:27:28.236Z,100.00
2022-11-29T08:39:21.204Z,100.00
2022-11-29T08:43:01.410Z,100.00
2022-11-29T08:46:59.198Z,100.00
2022-11-29T08:58:22.340Z,100.00
2022-11-29T09:01:47.302Z,100.00
2022-11-29T09:05:15.258Z,100.00
2022-11-29T09:08:47.063Z,100.00
2022-11-29T09:12:09.487Z,100.00
2022-11-29T09:15:29.507Z,100.00
2022-11-29T09:19:08.603Z,100.00
2022-11-29T09:22:46.534Z,100.00
2022-11-29T09:26:10.906Z,97.95
2022-11-29T09:29:24.186Z,98.00
2022-11-29T09:32:56.251Z,97.00
2022-11-29T09:36:28.859Z,97.99
2022-11-29T09:40:08.168Z,98.45
2022-11-29T09:44:02.504Z,98.07
2022-11-29T09:48:11.168Z,95.64
2022-11-29T09:52:36.307Z,94.82
2022-11-29T09:56:26.758Z,95.30
2022-11-29T09:59:49.909Z,94.34
2022-11-29T10:03:23.772Z,93.36
2022-11-29T10:07:32.621Z,93.80
2022-11-29T10:11:09.570Z,94.41
2022-11-29T10:14:44.869Z,93.77
2022-11-29T10:18:21.186Z,94.67
2022-11-29T10:22:20.682Z,94.15
2022-11-29T10:26:00.508Z,94.02
2022-11-29T10:29:28.030Z,93.62
2022-11-29T10:32:52.124Z,93.82
2022-11-29T10:40:37.044Z,92.74
2022-11-29T10:43:52.929Z,92.07
2022-11-29T10:47:25.114Z,93.13
2022-11-29T10:50:43.698Z,93.35
2022-11-29T10:54:56.522Z,93.16
2022-11-29T10:58:44.854Z,93.11
2022-11-29T11:02:22.373Z,93.09
2022-11-29T11:05:42.131Z,92.65
2022-11-29T11:09:35.526Z,93.23
2022-11-29T11:13:23.018Z,92.37
2022-11-29T11:17:14.375Z,91.22
2022-11-29T11:21:00.254Z,91.26
2022-11-29T11:24:42.614Z,91.53
2022-11-29T11:28:29.041Z,91.47
2022-11-29T11:32:00.687Z,91.57
2022-11-29T11:35:37.292Z,92.55
2022-11-29T11:39:23.775Z,92.58
2022-11-29T11:43:22.154Z,93.84
2022-11-29T11:46:51.839Z,94.72
2022-11-29T11:50:45.444Z,94.87
2022-11-29T11:54:18.417Z,95.93
2022-11-29T11:57:26.223Z,96.48
2022-11-29T12:01:13.375Z,96.27
2022-11-29T12:04:37.374Z,96.59
2022-11-29T12:08:20.246Z,96.00
2022-11-29T12:12:06.642Z,95.23
2022-11-29T12:15:45.034Z,95.10
2022-11-29T12:19:26.043Z,95.63
2022-11-29T12:23:11.398Z,96.05
2022-11-29T12:26:58.511Z,96.81
2022-11-29T12:30:19.262Z,96.96
2022-11-29T12:34:22.619Z,96.33
2022-11-29T12:38:40.670Z,96.63
2022-11-29T12:42:29.909Z,97.47
2022-11-29T12:46:11.745Z,96.59
2022-11-29T12:49:55.519Z,96.85
2022-11-29T12:53:56.380Z,97.08
2022-11-29T12:57:49.259Z,96.57
2022-11-29T13:01:51.481Z,96.46
2022-11-29T13:05:20.542Z,95.99
2022-11-29T13:09:30.169Z,96.78
2022-11-29T13:12:55.221Z,96.87
2022-11-29T13:16:43.352Z,97.12
2022-11-29T13:21:15.488Z,97.55
2022-11-29T13:25:13.177Z,97.15
2022-11-29T13:28:48.278Z,95.97
2022-11-29T13:32:33.288Z,96.68
2022-11-29T13:36:22.098Z,96.30
2022-11-29T13:40:03.202Z,96.45
2022-11-29T13:43:47.850Z,96.97
2022-11-29T13:47:24.891Z,97.41
2022-11-29T13:50:56.471Z,97.45
2022-11-29T13:54:32.812Z,96.80
2022-11-29T13:58:18.309Z,95.96
2022-11-29T14:01:47.361Z,97.09
2022-11-29T14:05:09.860Z,97.44
2022-11-29T14:12:41.339Z,97.85
2022-11-29T14:16:07.225Z,98.11
2022-11-29T14:19:32.813Z,98.50
2022-11-29T14:23:06.497Z,98.09
2022-11-29T14:26:41.116Z,98.04
2022-11-29T14:29:58.737Z,97.74
2022-11-29T14:33:24.244Z,98.30
2022-11-29T14:36:41.071Z,98.56
2022-11-29T14:40:29.143Z,99.09
2022-11-29T14:44:22.028Z,99.03
2022-11-29T14:47:52.292Z,99.48
2022-11-29T14:51:14.735Z,100.00
2022-11-29T14:54:56.632Z,99.89
2022-11-29T14:58:22.810Z,100.00
2022-11-29T15:01:56.144Z,100.00
2022-11-29T15:05:38.791Z,100.00
2022-11-29T15:09:17.354Z,100.00
2022-11-29T15:12:36.821Z,100.00
2022-11-29T15:16:34.359Z,100.00
2022-11-29T15:20:00.439Z,100.00
2022-11-29T15:23:42.722Z,100.00
2022-11-29T15:27:13.488Z,100.00
2022-11-29T15:30:49.023Z,100.00
2022-11-29T15:34:28.368Z,100.00
2022-11-29T15:37:49.741Z,100.00
2022-11-29T15:41:27.478Z,100.00
2022-11-29T15:45:00.531Z,100.00
2022-11-29T15:48:30.465Z,100.00
2022-11-29T15:52:18.526Z,100.00
2022-11-29T15:55:32.107Z,100.00
2022-11-29T15:59:36.708Z,100.00
2022-11-29T16:03:07.340Z,100.00
2022-11-29T16:06:44.901Z,100.00
2022-11-29T16:10:35.372Z,100.00
2022-11-29T16:14:25.308Z,100.00
2022-11-29T16:17:42.174Z,100.00
2022-11-29T16:21:23.273Z,100.00
2022-11-29T16:25:04.393Z,100.00
2022-11-29T16:28:47.898Z,100.00
2022-11-29T16:32:21.503Z,100.00
2022-11-29T16:35:51.844Z,100.00
2022-11-29T16:39:25.200Z,100.00
2022-11-29T16:42:46.508Z,100.00
2022-11-29T16:46:27.654Z,100.00
2022-11-29T16:50:22.732Z,100.00
2022-11-29T16:53:44.464Z,100.00
2022-11-29T16:57:15.599Z,100.00
2022-11-29T17:00:47.665Z,100.00
2022-11-29T17:04:02.507Z,100.00
2022-11-29T17:07:41.491Z,100.00
2022-11-29T17:11:11.859Z,100.00
2022-11-29T17:14:26.997Z,100.00
2022-11-29T17:18:01.709Z,100.00
2022-11-29T17:21:32.768Z,100.00
2022-11-29T17:24:56.979Z,100.00
2022-11-29T17:28:31.343Z,100.00
2022-11-29T17:31:50.564Z,100.00
2022-11-29T17:35:10.220Z,100.00
2022-11-29T17:38:36.987Z,100.00
2022-11-29T17:42:04.090Z,100.00
2022-11-29T17:45:18.356Z,100.00
2022-11-29T17:48:49.839Z,100.00
2022-11-29T17:52:20.020Z,100.00
2022-11-29T17:55:37.133Z,100.00
2022-11-29T17:58:56.010Z,100.00
2022-11-29T18:02:13.455Z,100.00
2022-11-29T18:05:34.778Z,100.00
2022-11-29T18:09:05.905Z,100.00
2022-11-29T18:12:20.600Z,100.00
2022-11-29T18:15:45.584Z,100.00
2022-11-29T18:19:20.405Z,100.00
2022-11-29T18:22:39.676Z,100.00
2022-11-29T18:26:20.344Z,100.00
2022-11-29T18:29:39.290Z,100.00
2022-11-29T18:33:05.811Z,100.00
2022-11-29T18:36:46.851Z,100.00
2022-11-29T18:40:03.792Z,100.00
2022-11-29T18:43:33.018Z,100.00
2022-11-29T18:46:51.218Z,100.00
2022-11-29T18:50:09.335Z,100.00
2022-11-29T18:53:26.300Z,100.00
2022-11-29T18:56:45.742Z,100.00
2022-11-29T19:00:17.463Z,100.00
2022-11-29T19:03:35.460Z,100.00
2022-11-29T19:07:04.242Z,100.00
2022-11-29T19:10:33.224Z,100.00
2022-11-29T19:14:03.411Z,100.00
2022-11-29T19:17:41.688Z,100.00
2022-11-29T19:21:18.982Z,100.00
2022-11-29T19:25:15.784Z,100.00
2022-11-29T19:28:30.382Z,100.00
2022-11-29T19:31:57.880Z,100.00
2022-11-29T19:35:29.939Z,100.00
2022-11-29T19:38:54.145Z,100.00
2022-11-29T19:42:13.186Z,100.00
2022-11-29T19:45:50.554Z,100.00
2022-11-29T19:49:35.635Z,100.00
2022-11-29T19:53:02.557Z,100.00
2022-11-29T19:56:35.577Z,100.00
2022-11-29T19:59:55.178Z,100.00
2022-11-29T20:03:15.599Z,100.00
2022-11-29T20:06:47.818Z,100.00
2022-11-29T20:10:08.699Z,100.00
2022-11-29T20:13:41.328Z,100.00
2022-11-29T20:17:14.418Z,100.00
2022-11-29T20:20:45.435Z,100.00
2022-11-29T20:24:06.423Z,100.00
2022-11-29T20:27:36.709Z,100.00
2022-11-29T20:31:22.376Z,100.00
2022-11-29T20:34:40.926Z,100.00
2022-11-29T20:38:48.404Z,100.00
2022-11-29T20:42:27.687Z,100.00
2022-11-29T20:45:46.169Z,100.00
2022-11-29T20:49:06.993Z,100.00
2022-11-29T20:52:44.672Z,100.00
2022-11-29T20:56:21.054Z,100.00
2022-11-29T20:59:54.668Z,100.00
2022-11-29T21:03:30.145Z,100.00
2022-11-29T21:06:59.718Z,100.00
2022-11-29T21:10:31.397Z,100.00
2022-11-29T21:14:14.128Z,100.00
2022-11-29T21:17:51.943Z,100.00
2022-11-29T21:21:43.213Z,100.00
2022-11-29T21:25:25.450Z,100.00
2022-11-29T21:29:21.159Z,100.00
2022-11-29T21:32:58.113Z,100.00
2022-11-29T21:36:32.750Z,100.00
2022-11-29T21:39:58.570Z,100.00
2022-11-29T21:44:04.516Z,100.00
2022-11-29T21:46:54.042Z,100.00
2022-11-29T21:50:21.352Z,100.00
2022-11-29T21:53:41.603Z,100.00
2022-11-29T21:57:14.984Z,100.00
2022-11-29T22:00:37.267Z,100.00
2022-11-29T22:03:53.667Z,100.00
2022-11-29T22:07:35.072Z,100.00
2022-11-29T22:11:00.012Z,100.00
2022-11-29T22:14:27.181Z,100.00
2022-11-29T22:17:46.233Z,100.00
2022-11-29T22:21:14.664Z,100.00
2022-11-29T22:24:55.296Z,100.00
2022-11-29T22:28:24.757Z,100.00
2022-11-29T22:32:03.293Z,100.00
2022-11-29T22:35:36.008Z,100.00
2022-11-29T22:39:13.457Z,100.00
2022-11-29T22:42:48.580Z,100.00
2022-11-29T22:46:29.092Z,100.00
2022-11-29T22:50:11.104Z,100.00
2022-11-29T22:53:48.264Z,100.00
2022-11-29T22:57:44.267Z,100.00
2022-11-29T23:01:23.274Z,100.00
2022-11-29T23:04:50.710Z,100.00
2022-11-29T23:08:19.243Z,100.00
2022-11-29T23:12:03.165Z,100.00
2022-11-29T23:19:42.571Z,100.00
2022-11-29T23:27:27.237Z,100.00
2022-11-29T23:31:04.967Z,100.00
2022-11-29T23:34:46.814Z,100.00
2022-11-29T23:38:26.759Z,100.00
2022-11-29T23:41:52.634Z,100.00
2022-11-29T23:50:08.502Z,100.00
2022-11-29T23:53:52.478Z,100.00
2022-11-29T23:57:18.968Z,100.00
